Thunder radar more information blitzortung!


Löydät sääaseman tiedot myös:

European Weather Network

Finland Weather Exchange

Weather Underground

AWEKAS



Weather Underground säähistoriasivu

Päivittäin yhteenveto Tou 8, 2017 Yksiköt:  Englantilaiset    Metriset   Molemmat
« Edellinen Päivä
Seuraava Päivä »
Päivittäin Viikoittain Kuukausittain Vuosittain Mukautettu
  Korkea: Matala: Keskiarvo:
Lämpötila: TemperatureC °F -2.3 °F 0.3 °F
Kastepiste: DewpointC °F -6.4 °F -3.3 °F
Kosteus: Humidity % 51 % 77 %
Tuulen nopeus: WindSpeedKMH mph 0.0 mph 2 mph
Tuulenpuuska: WindSpeedGustKMH mph - -
Tuuli:- - SSW
Ilmanpaine: PressurehPa in 1013.4 in -
Sade: 1.5 in    
Historical Graphs
 
 
Taulukkotiedot Tou 8, 2017
Aika Lämpötila Kastepiste Ilmanpaine Tuuli Tuulen nopeus Tuulenpuuska Kosteus Sademäärä (tunneittain)
TemperatureC °F DewpointC °F PressurehPa in Calm     Humidity % HourlyPrecipMM in
00:00 0.3 °F -0.4 °F 1013.4 in Calm   1.6 mph 95 % 0.0 in
00:15 0.2 °F -0.5 °F 1013.4 in Calm   1.6 mph 95 % 0.0 in
00:30 0.1 °F -0.6 °F 1013.4 in Calm   1.6 mph 95 % 0.0 in
00:45 -0.1 °F -0.8 °F 1013.4 in Calm   1.6 mph 95 % 0.0 in
01:00 -0.2 °F -0.9 °F 1013.8 in Calm   1.6 mph 95 % 0.0 in
01:15 -0.4 °F -1.1 °F 1013.8 in Calm   1.6 mph 95 % 0.0 in
01:30 -0.6 °F -1.3 °F 1013.8 in Calm     95 % 0.0 in
01:45 -0.7 °F -1.4 °F 1013.8 in Calm   1.6 mph 95 % 0.0 in
02:00 -0.7 °F -1.4 °F 1014.1 in Calm   1.6 mph 95 % 0.0 in
02:15 -0.8 °F -1.5 °F 1014.1 in Calm   1.6 mph 95 % 0.0 in
02:30 -1.0 °F -1.7 °F 1014.4 in Calm   1.6 mph 95 % 0.0 in
02:45 -1.2 °F -2.0 °F 1014.4 in Calm   1.6 mph 94 % 0.0 in
03:00 -1.3 °F -2.2 °F 1014.4 in Calm   3.2 mph 94 % 0.0 in
03:15 -1.5 °F -2.3 °F 1014.8 in Calm   1.6 mph 94 % 0.0 in
03:30 -1.7 °F -2.5 °F 1015.1 in Calm   3.2 mph 94 % 0.0 in
03:45 -1.8 °F -2.6 °F 1015.1 in Calm   3.2 mph 94 % 0.0 in
04:00 -1.9 °F -2.6 °F 1015.1 in Calm     95 % 0.0 in
04:15 -1.9 °F -2.6 °F 1015.5 in Calm   1.6 mph 95 % 0.0 in
04:30 -2.1 °F -2.9 °F 1015.5 in Calm   1.6 mph 94 % 0.0 in
04:45 -2.2 °F -2.9 °F 1015.5 in Calm     95 % 0.0 in
05:00 -2.3 °F -3.0 °F 1015.8 in Calm   1.6 mph 95 % 0.0 in
05:15 -2.2 °F -2.9 °F 1015.8 in Calm   1.6 mph 95 % 0.0 in
05:30 -1.9 °F -2.6 °F 1015.8 in Calm   1.6 mph 95 % 0.0 in
05:45 -1.9 °F -2.6 °F 1016.1 in Calm   1.6 mph 95 % 0.0 in
06:00 -1.8 °F -2.5 °F 1016.1 in Calm   1.6 mph 95 % 0.0 in
06:15 -1.7 °F -2.4 °F 1016.5 in Calm     95 % 0.0 in
06:30 -1.6 °F -2.3 °F 1016.5 in Calm   1.6 mph 95 % 0.0 in
06:45 -1.3 °F -2.0 °F 1016.8 in Calm   1.6 mph 95 % 0.0 in
07:00 -1.3 °F -2.1 °F 1016.8 in Calm   1.6 mph 94 % 0.0 in
07:15 -1.1 °F -1.9 °F 1016.8 in Calm   4.8 mph 94 % 0.0 in
07:30 -1.0 °F -1.8 °F 1016.8 in Calm   3.2 mph 94 % 0.0 in
07:45 -0.8 °F -1.8 °F 1016.8 in Calm   3.2 mph 93 % 0.0 in
08:00 -0.7 °F -1.8 °F 1016.8 in Calm   4.8 mph 92 % 0.0 in
08:15 -0.5 °F -1.8 °F 1017.2 in Calm   3.2 mph 91 % 0.0 in
08:30 -0.2 °F -1.8 °F 1017.2 in Calm   6.4 mph 89 % 0.0 in
08:45 0.1 °F -1.7 °F 1017.2 in Calm   4.8 mph 88 % 0.0 in
09:00 0.3 °F -1.9 °F 1017.2 in NW 1.6 mph 6.4 mph 85 % 0.0 in
09:15 0.6 °F -2.0 °F 1017.2 in North 3.2 mph 9.7 mph 83 % 0.3 in
09:30 0.4 °F -2.4 °F 1017.5 in North 3.2 mph 6.4 mph 81 % 0.5 in
09:45 0.7 °F -2.5 °F 1017.5 in NNW 3.2 mph 9.7 mph 79 % 0.8 in
10:00 1.1 °F -2.5 °F 1017.2 in North 3.2 mph 11.3 mph 77 % 1.0 in
10:15 1.1 °F -3.1 °F 1017.2 in NNE 3.2 mph 8.0 mph 74 % 0.8 in
10:30 1.1 °F -2.5 °F 1017.2 in NNE 1.6 mph 6.4 mph 77 % 0.5 in
10:45 1.0 °F -3.3 °F 1017.2 in North 1.6 mph 8.0 mph 73 % 0.5 in
11:00 1.6 °F -3.1 °F 1017.2 in NNE 3.2 mph 6.4 mph 71 % 0.3 in
11:15 2.0 °F -2.9 °F 1017.2 in North 3.2 mph 16.1 mph 70 % 0.5 in
11:30 1.4 °F -3.9 °F 1017.2 in North 3.2 mph 8.0 mph 68 % 0.5 in
11:45 2.2 °F -3.1 °F 1017.2 in NNE 4.8 mph 9.7 mph 68 % 0.3 in
12:00 1.6 °F -3.3 °F 1017.2 in North 1.6 mph 6.4 mph 70 % 0.3 in
12:15 2.7 °F -3.1 °F 1017.5 in North 4.8 mph 14.5 mph 66 % 0.0 in
12:30 2.1 °F -3.6 °F 1017.2 in NNW 3.2 mph 11.3 mph 66 % 0.0 in
12:45 2.4 °F -2.9 °F 1017.5 in North 3.2 mph 9.7 mph 68 % 0.0 in
13:00 1.7 °F -4.4 °F 1017.5 in North 4.8 mph 12.9 mph 64 % 0.0 in
13:15 1.4 °F -3.5 °F 1017.2 in NNE 3.2 mph 8.0 mph 70 % 0.0 in
13:30 2.0 °F -4.5 °F 1017.2 in North 3.2 mph 25.7 mph 62 % 0.0 in
13:45 1.9 °F -5.0 °F 1017.2 in NNE 3.2 mph 8.0 mph 60 % 0.0 in
14:00 3.1 °F -4.0 °F 1017.2 in NW 8.0 mph 24.1 mph 60 % 0.0 in
14:15 2.6 °F -6.3 °F 1016.8 in North 6.4 mph 11.3 mph 52 % 0.0 in
14:30 3.2 °F -5.7 °F 1017.2 in NNW 6.4 mph 19.3 mph 52 % 0.0 in
14:45 2.4 °F -6.4 °F 1017.2 in North 4.8 mph 16.1 mph 52 % 0.0 in
15:00 2.9 °F -6.2 °F 1017.2 in North 4.8 mph 12.9 mph 51 % 0.0 in
15:15 2.1 °F -5.5 °F 1017.2 in North 6.4 mph 17.7 mph 57 % 0.0 in
15:30 2.4 °F -4.5 °F 1016.8 in NNW 4.8 mph 17.7 mph 60 % 0.0 in
15:45 2.2 °F -4.8 °F 1016.8 in North 6.4 mph 16.1 mph 60 % 0.0 in
16:00 2.1 °F -4.9 °F 1016.8 in North 4.8 mph 12.9 mph 60 % 0.0 in
16:15 1.7 °F -4.2 °F 1016.8 in North 4.8 mph 11.3 mph 65 % 0.0 in
16:30 1.1 °F -3.9 °F 1016.8 in North 4.8 mph 11.3 mph 69 % 0.0 in
16:45 0.8 °F -3.7 °F 1016.8 in North 6.4 mph 14.5 mph 72 % 0.0 in
17:00 0.9 °F -4.2 °F 1016.8 in North 4.8 mph 17.7 mph 69 % 0.0 in
17:15 1.3 °F -4.0 °F 1016.8 in North 4.8 mph 20.9 mph 68 % 0.0 in
17:30 1.1 °F -3.6 °F 1016.5 in North 3.2 mph 12.9 mph 71 % 0.0 in
17:45 1.3 °F -3.9 °F 1016.8 in North 4.8 mph 16.1 mph 68 % 0.0 in
18:00 0.1 °F -3.9 °F 1016.8 in NNW 3.2 mph 9.7 mph 75 % 0.0 in
18:15 0.5 °F -4.2 °F 1016.5 in North 3.2 mph 11.3 mph 71 % 0.0 in
18:30 1.1 °F -4.2 °F 1016.5 in NNW 4.8 mph 12.9 mph 68 % 0.0 in
18:45 1.4 °F -4.6 °F 1016.1 in North 4.8 mph 14.5 mph 64 % 0.0 in
19:00 1.3 °F -4.5 °F 1016.1 in North 3.2 mph 9.7 mph 65 % 0.0 in
19:15 1.1 °F -4.7 °F 1016.1 in North 3.2 mph 9.7 mph 65 % 0.0 in
19:30 1.1 °F -4.7 °F 1016.1 in North 4.8 mph 9.7 mph 65 % 0.0 in
19:45 0.9 °F -4.3 °F 1016.1 in North 1.6 mph 6.4 mph 68 % 0.0 in
20:00 0.2 °F -4.1 °F 1016.1 in NNE 3.2 mph 12.9 mph 73 % 0.0 in
20:15 0.1 °F -4.3 °F 1016.1 in Calm   4.8 mph 72 % 0.0 in
20:30 0.3 °F -3.9 °F 1016.1 in Calm   4.8 mph 73 % 0.0 in
20:45 0.4 °F -3.7 °F 1016.1 in Calm     74 % 0.0 in
21:00 0.4 °F -4.4 °F 1016.1 in North 1.6 mph 4.8 mph 70 % 0.0 in
21:15 0.5 °F -4.3 °F 1016.1 in NNW 1.6 mph 11.3 mph 70 % 0.0 in
21:30 0.5 °F -4.3 °F 1016.1 in NNW 1.6 mph 9.7 mph 70 % 0.0 in
21:45 0.5 °F -4.3 °F 1016.1 in NNW 1.6 mph 4.8 mph 70 % 0.0 in
22:00 0.3 °F -4.9 °F 1016.1 in NNW 1.6 mph 6.4 mph 68 % 0.0 in
22:15 0.0 °F -4.8 °F 1016.1 in North 1.6 mph 9.7 mph 70 % 0.0 in
22:30 -0.3 °F -4.6 °F 1016.1 in North 1.6 mph 6.4 mph 73 % 0.0 in
22:45 -0.6 °F -4.7 °F 1016.1 in Calm   3.2 mph 74 % 0.0 in
23:00 -0.9 °F -4.8 °F 1016.1 in Calm   1.6 mph 75 % 0.0 in
23:15 -1.1 °F -4.9 °F 1016.1 in Calm   3.2 mph 75 % 0.0 in
23:30 -1.2 °F -5.1 °F 1016.1 in Calm   3.2 mph 75 % 0.0 in
23:45 -1.3 °F -5.1 °F 1016.1 in Calm   4.8 mph 75 % 0.0 in
Esan sääasema
Terveisin Weather Underground - 2.75 mb

Alkuperäinen skripti  Jim McMurry - jmcmurry@mwt.net Sovitettu myös templatelle  Wim van der Kuil - Leuven-Template.eu

Laitteet joita käytämme:

Sääasema
Davis VP2

Sääasemaohjelma
Cumulus

Sääaseman tietokone
Asus EeePC

Palveluntarjoaja
Suncomet

Davis VP2

Cumulus

Asus EeePC

Suncomet